sensor_id;sensor_type;location;lat;lon;timestamp;pressure;altitude;pressure_sealevel;temperature;humidity
17649;BME280;8943;51.110;-4.158;2022-08-01T00:01:22;101593.31;;;19.49;53.36
17649;BME280;8943;51.110;-4.158;2022-08-01T00:03:51;101589.06;;;19.47;53.41
17649;BME280;8943;51.110;-4.158;2022-08-01T00:06:20;101588.53;;;19.43;53.40
17649;BME280;8943;51.110;-4.158;2022-08-01T00:08:50;101591.66;;;19.39;53.78
17649;BME280;8943;51.110;-4.158;2022-08-01T00:11:18;101591.25;;;19.34;53.72
17649;BME280;8943;51.110;-4.158;2022-08-01T00:13:47;101587.75;;;19.23;53.86
17649;BME280;8943;51.110;-4.158;2022-08-01T00:16:15;101578.50;;;19.16;53.59
17649;BME280;8943;51.110;-4.158;2022-08-01T00:18:44;101574.28;;;19.14;53.99
17649;BME280;8943;51.110;-4.158;2022-08-01T00:21:12;101570.16;;;19.10;53.88
17649;BME280;8943;51.110;-4.158;2022-08-01T00:23:41;101571.69;;;19.12;53.85
17649;BME280;8943;51.110;-4.158;2022-08-01T00:26:12;101572.59;;;19.03;54.00
17649;BME280;8943;51.110;-4.158;2022-08-01T00:28:40;101577.44;;;18.99;54.06
17649;BME280;8943;51.110;-4.158;2022-08-01T00:31:09;101581.44;;;18.95;54.49
17649;BME280;8943;51.110;-4.158;2022-08-01T00:33:37;101582.72;;;18.91;54.47
17649;BME280;8943;51.110;-4.158;2022-08-01T00:36:05;101575.63;;;18.90;54.43
17649;BME280;8943;51.110;-4.158;2022-08-01T00:38:35;101585.13;;;18.94;54.79
17649;BME280;8943;51.110;-4.158;2022-08-01T00:41:03;101579.00;;;19.02;54.65
17649;BME280;8943;51.110;-4.158;2022-08-01T00:43:33;101585.53;;;19.09;54.58
17649;BME280;8943;51.110;-4.158;2022-08-01T00:46:01;101581.53;;;19.13;54.32
17649;BME280;8943;51.110;-4.158;2022-08-01T00:48:29;101586.78;;;19.15;54.43
17649;BME280;8943;51.110;-4.158;2022-08-01T00:50:58;101581.06;;;19.18;54.37
17649;BME280;8943;51.110;-4.158;2022-08-01T00:53:26;101581.63;;;19.21;54.10
17649;BME280;8943;51.110;-4.158;2022-08-01T00:56:16;101573.97;;;19.17;54.07
17649;BME280;8943;51.110;-4.158;2022-08-01T00:58:48;101576.97;;;19.14;54.27
17649;BME280;8943;51.110;-4.158;2022-08-01T01:01:17;101568.72;;;19.15;54.18
17649;BME280;8943;51.110;-4.158;2022-08-01T01:03:48;101566.72;;;19.17;54.21
17649;BME280;8943;51.110;-4.158;2022-08-01T01:06:30;101569.97;;;19.21;54.14
17649;BME280;8943;51.110;-4.158;2022-08-01T01:09:17;101562.03;;;19.19;54.21
17649;BME280;8943;51.110;-4.158;2022-08-01T01:11:57;101579.94;;;19.20;54.29
17649;BME280;8943;51.110;-4.158;2022-08-01T01:14:37;101585.22;;;19.12;53.95
17649;BME280;8943;51.110;-4.158;2022-08-01T01:17:12;101580.41;;;19.06;54.28
17649;BME280;8943;51.110;-4.158;2022-08-01T01:19:59;101579.84;;;19.02;54.58
17649;BME280;8943;51.110;-4.158;2022-08-01T01:22:46;101574.19;;;18.96;54.40
17649;BME280;8943;51.110;-4.158;2022-08-01T01:25:28;101568.38;;;18.91;54.42
17649;BME280;8943;51.110;-4.158;2022-08-01T01:28:09;101567.69;;;18.89;54.39
17649;BME280;8943;51.110;-4.158;2022-08-01T01:30:43;101566.25;;;18.85;54.67
17649;BME280;8943;51.110;-4.158;2022-08-01T01:33:13;101569.38;;;18.90;54.54
17649;BME280;8943;51.110;-4.158;2022-08-01T01:35:46;101558.56;;;18.90;54.75
17649;BME280;8943;51.110;-4.158;2022-08-01T01:38:20;101558.81;;;18.96;54.93
17649;BME280;8943;51.110;-4.158;2022-08-01T01:40:50;101556.81;;;19.08;54.59
17649;BME280;8943;51.110;-4.158;2022-08-01T01:43:20;101549.22;;;19.21;54.56
17649;BME280;8943;51.110;-4.158;2022-08-01T01:46:02;101554.72;;;19.29;54.59
17649;BME280;8943;51.110;-4.158;2022-08-01T01:48:32;101555.97;;;19.35;54.52
17649;BME280;8943;51.110;-4.158;2022-08-01T01:51:02;101557.38;;;19.39;54.17
17649;BME280;8943;51.110;-4.158;2022-08-01T01:53:33;101557.78;;;19.44;54.45
17649;BME280;8943;51.110;-4.158;2022-08-01T01:56:03;101563.31;;;19.52;54.54
17649;BME280;8943;51.110;-4.158;2022-08-01T01:58:32;101562.56;;;19.60;54.50
17649;BME280;8943;51.110;-4.158;2022-08-01T02:01:03;101567.06;;;19.69;54.35
17649;BME280;8943;51.110;-4.158;2022-08-01T02:03:41;101558.03;;;19.78;54.25
17649;BME280;8943;51.110;-4.158;2022-08-01T02:06:12;101563.69;;;19.85;54.52
17649;BME280;8943;51.110;-4.158;2022-08-01T02:08:42;101563.38;;;19.88;54.40
17649;BME280;8943;51.110;-4.158;2022-08-01T02:11:12;101562.75;;;19.94;54.46
17649;BME280;8943;51.110;-4.158;2022-08-01T02:13:50;101559.75;;;19.97;54.23
17649;BME280;8943;51.110;-4.158;2022-08-01T02:16:23;101557.06;;;19.97;54.29
17649;BME280;8943;51.110;-4.158;2022-08-01T02:18:53;101560.06;;;19.94;54.25
17649;BME280;8943;51.110;-4.158;2022-08-01T02:21:26;101553.50;;;19.97;54.15
17649;BME280;8943;51.110;-4.158;2022-08-01T02:24:00;101545.84;;;19.92;54.21
17649;BME280;8943;51.110;-4.158;2022-08-01T02:26:32;101547.72;;;19.92;53.96
17649;BME280;8943;51.110;-4.158;2022-08-01T02:29:05;101537.25;;;19.79;54.11
17649;BME280;8943;51.110;-4.158;2022-08-01T02:31:39;101541.88;;;19.69;54.16
17649;BME280;8943;51.110;-4.158;2022-08-01T02:34:14;101551.75;;;19.60;53.98
17649;BME280;8943;51.110;-4.158;2022-08-01T02:36:44;101557.72;;;19.54;54.35
17649;BME280;8943;51.110;-4.158;2022-08-01T02:39:15;101558.88;;;19.51;54.17
17649;BME280;8943;51.110;-4.158;2022-08-01T02:41:51;101561.84;;;19.58;54.40
17649;BME280;8943;51.110;-4.158;2022-08-01T02:44:24;101551.44;;;19.63;54.38
17649;BME280;8943;51.110;-4.158;2022-08-01T02:47:00;101552.84;;;19.67;54.55
17649;BME280;8943;51.110;-4.158;2022-08-01T02:49:31;101548.53;;;19.74;54.56
17649;BME280;8943;51.110;-4.158;2022-08-01T02:52:04;101540.50;;;19.83;54.59
17649;BME280;8943;51.110;-4.158;2022-08-01T02:54:34;101548.69;;;19.91;54.41
17649;BME280;8943;51.110;-4.158;2022-08-01T02:57:06;101545.22;;;19.98;54.43
17649;BME280;8943;51.110;-4.158;2022-08-01T02:59:47;101533.94;;;20.03;54.17
17649;BME280;8943;51.110;-4.158;2022-08-01T03:02:19;101534.97;;;20.02;54.37
17649;BME280;8943;51.110;-4.158;2022-08-01T03:04:48;101540.38;;;20.02;54.48
17649;BME280;8943;51.110;-4.158;2022-08-01T03:07:22;101533.56;;;19.98;54.42
17649;BME280;8943;51.110;-4.158;2022-08-01T03:10:05;101533.09;;;20.02;54.69
17649;BME280;8943;51.110;-4.158;2022-08-01T03:12:34;101541.22;;;20.02;54.47
17649;BME280;8943;51.110;-4.158;2022-08-01T03:15:06;101528.53;;;20.03;54.50
17649;BME280;8943;51.110;-4.158;2022-08-01T03:17:37;101540.66;;;19.99;54.21
17649;BME280;8943;51.110;-4.158;2022-08-01T03:20:08;101535.97;;;20.01;54.43
17649;BME280;8943;51.110;-4.158;2022-08-01T03:22:39;101540.75;;;20.07;54.76
17649;BME280;8943;51.110;-4.158;2022-08-01T03:25:10;101529.31;;;20.13;54.75
17649;BME280;8943;51.110;-4.158;2022-08-01T03:27:42;101539.03;;;20.24;54.85
17649;BME280;8943;51.110;-4.158;2022-08-01T03:30:12;101525.75;;;20.30;54.72
17649;BME280;8943;51.110;-4.158;2022-08-01T03:32:43;101537.25;;;20.32;54.62
17649;BME280;8943;51.110;-4.158;2022-08-01T03:35:12;101542.97;;;20.29;54.36
17649;BME280;8943;51.110;-4.158;2022-08-01T03:37:43;101547.41;;;20.30;54.67
17649;BME280;8943;51.110;-4.158;2022-08-01T03:40:40;101551.09;;;20.29;54.67
17649;BME280;8943;51.110;-4.158;2022-08-01T03:43:12;101542.50;;;20.34;54.55
17649;BME280;8943;51.110;-4.158;2022-08-01T03:45:47;101544.22;;;20.35;54.68
17649;BME280;8943;51.110;-4.158;2022-08-01T03:48:19;101543.72;;;20.40;54.58
17649;BME280;8943;51.110;-4.158;2022-08-01T03:50:53;101543.44;;;20.43;54.70
17649;BME280;8943;51.110;-4.158;2022-08-01T03:53:24;101538.41;;;20.48;54.73
17649;BME280;8943;51.110;-4.158;2022-08-01T03:55:54;101543.38;;;20.52;54.62
17649;BME280;8943;51.110;-4.158;2022-08-01T03:58:24;101542.91;;;20.57;54.67
17649;BME280;8943;51.110;-4.158;2022-08-01T04:00:53;101541.03;;;20.57;54.61
17649;BME280;8943;51.110;-4.158;2022-08-01T04:03:24;101548.00;;;20.60;54.51
17649;BME280;8943;51.110;-4.158;2022-08-01T04:05:53;101549.53;;;20.63;54.36
17649;BME280;8943;51.110;-4.158;2022-08-01T04:08:21;101544.13;;;20.63;54.75
17649;BME280;8943;51.110;-4.158;2022-08-01T04:10:55;101540.63;;;20.70;54.52
17649;BME280;8943;51.110;-4.158;2022-08-01T04:13:25;101533.88;;;20.74;54.71
17649;BME280;8943;51.110;-4.158;2022-08-01T04:16:03;101538.50;;;20.82;54.42
17649;BME280;8943;51.110;-4.158;2022-08-01T04:18:33;101535.63;;;20.83;54.56
17649;BME280;8943;51.110;-4.158;2022-08-01T04:21:01;101529.88;;;20.87;54.21
17649;BME280;8943;51.110;-4.158;2022-08-01T04:23:30;101537.00;;;20.88;54.62
17649;BME280;8943;51.110;-4.158;2022-08-01T04:25:59;101540.72;;;20.87;54.65
17649;BME280;8943;51.110;-4.158;2022-08-01T04:28:34;101538.72;;;20.89;54.72
17649;BME280;8943;51.110;-4.158;2022-08-01T04:31:06;101535.00;;;20.90;54.40
17649;BME280;8943;51.110;-4.158;2022-08-01T04:33:38;101534.28;;;20.88;54.54
17649;BME280;8943;51.110;-4.158;2022-08-01T04:36:09;101531.91;;;20.85;54.55
17649;BME280;8943;51.110;-4.158;2022-08-01T04:38:40;101533.31;;;20.89;54.81
17649;BME280;8943;51.110;-4.158;2022-08-01T04:41:11;101532.66;;;20.95;54.55
17649;BME280;8943;51.110;-4.158;2022-08-01T04:43:40;101535.88;;;20.98;54.47
17649;BME280;8943;51.110;-4.158;2022-08-01T04:46:10;101538.44;;;21.00;54.44
17649;BME280;8943;51.110;-4.158;2022-08-01T04:48:42;101536.41;;;21.02;54.55
17649;BME280;8943;51.110;-4.158;2022-08-01T04:51:12;101539.66;;;21.05;54.53
17649;BME280;8943;51.110;-4.158;2022-08-01T04:53:42;101538.16;;;21.11;54.43
17649;BME280;8943;51.110;-4.158;2022-08-01T04:56:12;101534.78;;;21.17;54.59
17649;BME280;8943;51.110;-4.158;2022-08-01T04:58:41;101533.81;;;21.18;54.61
17649;BME280;8943;51.110;-4.158;2022-08-01T05:01:10;101537.72;;;21.24;54.59
17649;BME280;8943;51.110;-4.158;2022-08-01T05:03:39;101546.69;;;21.24;54.67
17649;BME280;8943;51.110;-4.158;2022-08-01T05:06:08;101543.03;;;21.33;54.56
17649;BME280;8943;51.110;-4.158;2022-08-01T05:08:37;101544.91;;;21.33;54.53
17649;BME280;8943;51.110;-4.158;2022-08-01T05:11:05;101550.16;;;21.34;54.67
17649;BME280;8943;51.110;-4.158;2022-08-01T05:13:33;101559.50;;;21.40;54.59
17649;BME280;8943;51.110;-4.158;2022-08-01T05:16:01;101560.34;;;21.41;54.71
17649;BME280;8943;51.110;-4.158;2022-08-01T05:18:32;101560.22;;;21.50;54.66
17649;BME280;8943;51.110;-4.158;2022-08-01T05:21:00;101562.44;;;21.55;54.67
17649;BME280;8943;51.110;-4.158;2022-08-01T05:23:30;101563.81;;;21.59;54.62
17649;BME280;8943;51.110;-4.158;2022-08-01T05:26:09;101561.78;;;21.61;54.75
17649;BME280;8943;51.110;-4.158;2022-08-01T05:28:40;101559.41;;;21.66;54.83
17649;BME280;8943;51.110;-4.158;2022-08-01T05:31:08;101567.06;;;21.71;54.49
17649;BME280;8943;51.110;-4.158;2022-08-01T05:33:37;101570.63;;;21.71;54.57
17649;BME280;8943;51.110;-4.158;2022-08-01T05:36:05;101566.41;;;21.77;54.76
17649;BME280;8943;51.110;-4.158;2022-08-01T05:38:35;101563.22;;;21.81;54.77
17649;BME280;8943;51.110;-4.158;2022-08-01T05:41:03;101569.97;;;21.85;54.62
17649;BME280;8943;51.110;-4.158;2022-08-01T05:43:32;101573.91;;;21.91;54.85
17649;BME280;8943;51.110;-4.158;2022-08-01T05:46:00;101568.13;;;21.94;54.81
17649;BME280;8943;51.110;-4.158;2022-08-01T05:48:29;101574.75;;;22.00;54.46
17649;BME280;8943;51.110;-4.158;2022-08-01T05:50:57;101574.09;;;21.98;54.73
17649;BME280;8943;51.110;-4.158;2022-08-01T05:53:28;101568.31;;;22.01;54.72
17649;BME280;8943;51.110;-4.158;2022-08-01T05:55:57;101573.41;;;22.04;54.77
17649;BME280;8943;51.110;-4.158;2022-08-01T05:58:26;101563.47;;;22.13;54.71
17649;BME280;8943;51.110;-4.158;2022-08-01T06:00:55;101564.84;;;22.17;54.58
17649;BME280;8943;51.110;-4.158;2022-08-01T06:03:23;101559.03;;;22.20;54.68
17649;BME280;8943;51.110;-4.158;2022-08-01T06:05:57;101556.34;;;22.28;54.74
17649;BME280;8943;51.110;-4.158;2022-08-01T06:08:28;101548.72;;;22.31;54.61
17649;BME280;8943;51.110;-4.158;2022-08-01T06:10:58;101553.13;;;22.32;54.71
17649;BME280;8943;51.110;-4.158;2022-08-01T06:13:26;101549.72;;;22.39;54.73
17649;BME280;8943;51.110;-4.158;2022-08-01T06:15:54;101559.22;;;22.43;54.57
17649;BME280;8943;51.110;-4.158;2022-08-01T06:18:23;101562.28;;;22.48;54.40
17649;BME280;8943;51.110;-4.158;2022-08-01T06:20:51;101557.38;;;22.51;54.25
17649;BME280;8943;51.110;-4.158;2022-08-01T06:23:20;101561.97;;;22.51;54.07
17649;BME280;8943;51.110;-4.158;2022-08-01T06:25:59;101559.91;;;22.53;54.21
17649;BME280;8943;51.110;-4.158;2022-08-01T06:28:28;101563.97;;;22.57;54.29
17649;BME280;8943;51.110;-4.158;2022-08-01T06:30:56;101572.78;;;22.59;53.95
17649;BME280;8943;51.110;-4.158;2022-08-01T06:33:26;101568.06;;;22.61;54.17
17649;BME280;8943;51.110;-4.158;2022-08-01T06:35:54;101568.72;;;22.63;54.05
17649;BME280;8943;51.110;-4.158;2022-08-01T06:38:22;101564.13;;;22.63;54.09
17649;BME280;8943;51.110;-4.158;2022-08-01T06:40:51;101554.81;;;22.58;54.00
17649;BME280;8943;51.110;-4.158;2022-08-01T06:43:21;101551.06;;;22.59;54.04
17649;BME280;8943;51.110;-4.158;2022-08-01T06:45:49;101545.81;;;22.57;54.07
17649;BME280;8943;51.110;-4.158;2022-08-01T06:48:18;101552.78;;;22.60;53.81
17649;BME280;8943;51.110;-4.158;2022-08-01T06:50:46;101559.06;;;22.60;53.90
17649;BME280;8943;51.110;-4.158;2022-08-01T06:53:14;101552.59;;;22.61;53.97
17649;BME280;8943;51.110;-4.158;2022-08-01T06:55:43;101553.63;;;22.60;53.86
17649;BME280;8943;51.110;-4.158;2022-08-01T06:58:12;101558.88;;;22.62;53.64
17649;BME280;8943;51.110;-4.158;2022-08-01T07:00:42;101562.81;;;22.59;54.10
17649;BME280;8943;51.110;-4.158;2022-08-01T07:03:11;101577.56;;;22.65;53.83
17649;BME280;8943;51.110;-4.158;2022-08-01T07:05:39;101561.09;;;22.58;53.92
17649;BME280;8943;51.110;-4.158;2022-08-01T07:08:08;101567.88;;;22.62;53.75
17649;BME280;8943;51.110;-4.158;2022-08-01T07:10:36;101564.84;;;22.66;53.80
17649;BME280;8943;51.110;-4.158;2022-08-01T07:13:05;101558.38;;;22.67;53.62
17649;BME280;8943;51.110;-4.158;2022-08-01T07:15:34;101561.94;;;22.75;53.44
17649;BME280;8943;51.110;-4.158;2022-08-01T07:18:06;101554.25;;;22.79;53.74
17649;BME280;8943;51.110;-4.158;2022-08-01T07:20:34;101562.25;;;22.88;53.87
17649;BME280;8943;51.110;-4.158;2022-08-01T07:23:18;101557.31;;;23.00;53.83
17649;BME280;8943;51.110;-4.158;2022-08-01T07:25:48;101568.00;;;23.18;53.63
17649;BME280;8943;51.110;-4.158;2022-08-01T07:28:23;101561.97;;;23.31;53.71
17649;BME280;8943;51.110;-4.158;2022-08-01T07:30:52;101565.00;;;23.44;53.55
17649;BME280;8943;51.110;-4.158;2022-08-01T07:33:22;101567.50;;;23.54;53.24
17649;BME280;8943;51.110;-4.158;2022-08-01T07:35:50;101578.00;;;23.57;53.18
17649;BME280;8943;51.110;-4.158;2022-08-01T07:38:19;101571.19;;;23.61;52.82
17649;BME280;8943;51.110;-4.158;2022-08-01T07:40:47;101555.22;;;23.66;52.78
17649;BME280;8943;51.110;-4.158;2022-08-01T07:43:16;101563.22;;;23.68;52.69
17649;BME280;8943;51.110;-4.158;2022-08-01T07:45:45;101565.88;;;23.76;52.78
17649;BME280;8943;51.110;-4.158;2022-08-01T07:48:13;101558.22;;;23.79;52.83
17649;BME280;8943;51.110;-4.158;2022-08-01T07:50:43;101560.50;;;23.90;52.75
17649;BME280;8943;51.110;-4.158;2022-08-01T07:53:12;101555.53;;;24.02;52.65
17649;BME280;8943;51.110;-4.158;2022-08-01T07:55:40;101565.44;;;24.18;52.65
17649;BME280;8943;51.110;-4.158;2022-08-01T07:58:11;101564.00;;;24.30;52.67
17649;BME280;8943;51.110;-4.158;2022-08-01T08:00:40;101560.50;;;24.45;52.39
17649;BME280;8943;51.110;-4.158;2022-08-01T08:03:08;101558.19;;;24.56;52.13
17649;BME280;8943;51.110;-4.158;2022-08-01T08:05:37;101564.59;;;24.63;52.18
17649;BME280;8943;51.110;-4.158;2022-08-01T08:08:27;101547.38;;;24.63;51.94
17649;BME280;8943;51.110;-4.158;2022-08-01T08:10:55;101536.47;;;24.63;51.63
17649;BME280;8943;51.110;-4.158;2022-08-01T08:13:23;101531.16;;;24.70;51.49
17649;BME280;8943;51.110;-4.158;2022-08-01T08:15:52;101553.63;;;24.72;51.54
17649;BME280;8943;51.110;-4.158;2022-08-01T08:18:23;101551.72;;;24.72;51.52
17649;BME280;8943;51.110;-4.158;2022-08-01T08:20:52;101549.09;;;24.79;51.64
17649;BME280;8943;51.110;-4.158;2022-08-01T08:23:20;101533.03;;;24.84;51.40
17649;BME280;8943;51.110;-4.158;2022-08-01T08:26:11;101541.88;;;24.86;51.28
17649;BME280;8943;51.110;-4.158;2022-08-01T08:28:40;101537.34;;;24.93;51.44
17649;BME280;8943;51.110;-4.158;2022-08-01T08:31:08;101537.56;;;25.06;51.49
17649;BME280;8943;51.110;-4.158;2022-08-01T08:33:56;101549.91;;;25.17;51.70
17649;BME280;8943;51.110;-4.158;2022-08-01T08:36:25;101546.25;;;25.25;51.57
17649;BME280;8943;51.110;-4.158;2022-08-01T08:38:57;101544.63;;;25.30;51.33
17649;BME280;8943;51.110;-4.158;2022-08-01T08:41:29;101540.50;;;25.34;51.19
17649;BME280;8943;51.110;-4.158;2022-08-01T08:44:05;101540.97;;;25.38;51.37
17649;BME280;8943;51.110;-4.158;2022-08-01T08:46:40;101544.16;;;25.41;51.32
17649;BME280;8943;51.110;-4.158;2022-08-01T08:49:12;101544.69;;;25.52;51.30
17649;BME280;8943;51.110;-4.158;2022-08-01T08:51:43;101540.94;;;25.53;51.37
17649;BME280;8943;51.110;-4.158;2022-08-01T08:54:16;101547.38;;;25.66;51.13
17649;BME280;8943;51.110;-4.158;2022-08-01T08:56:48;101553.25;;;25.78;51.02
17649;BME280;8943;51.110;-4.158;2022-08-01T08:59:17;101550.78;;;25.83;51.10
17649;BME280;8943;51.110;-4.158;2022-08-01T09:01:47;101543.22;;;25.85;50.81
17649;BME280;8943;51.110;-4.158;2022-08-01T09:04:16;101547.28;;;25.89;50.89
17649;BME280;8943;51.110;-4.158;2022-08-01T09:06:48;101545.00;;;25.93;50.71
17649;BME280;8943;51.110;-4.158;2022-08-01T09:09:16;101551.94;;;25.96;50.60
17649;BME280;8943;51.110;-4.158;2022-08-01T09:11:48;101555.63;;;26.03;50.32
17649;BME280;8943;51.110;-4.158;2022-08-01T09:14:33;101549.00;;;26.12;50.47
17649;BME280;8943;51.110;-4.158;2022-08-01T09:17:05;101548.25;;;26.25;50.07
17649;BME280;8943;51.110;-4.158;2022-08-01T09:19:37;101553.53;;;26.48;50.46
17649;BME280;8943;51.110;-4.158;2022-08-01T09:22:10;101552.31;;;26.78;50.02
17649;BME280;8943;51.110;-4.158;2022-08-01T09:24:39;101553.09;;;27.00;49.47
17649;BME280;8943;51.110;-4.158;2022-08-01T09:27:20;101558.69;;;27.13;48.52
17649;BME280;8943;51.110;-4.158;2022-08-01T09:29:51;101558.28;;;27.23;48.31
17649;BME280;8943;51.110;-4.158;2022-08-01T09:32:28;101557.06;;;27.26;47.70
17649;BME280;8943;51.110;-4.158;2022-08-01T09:35:22;101552.44;;;27.26;46.93
17649;BME280;8943;51.110;-4.158;2022-08-01T09:38:16;101560.63;;;27.26;46.94
17649;BME280;8943;51.110;-4.158;2022-08-01T09:40:49;101553.72;;;27.30;46.58
17649;BME280;8943;51.110;-4.158;2022-08-01T09:43:20;101558.34;;;27.30;46.13
17649;BME280;8943;51.110;-4.158;2022-08-01T09:45:49;101559.19;;;27.30;45.79
17649;BME280;8943;51.110;-4.158;2022-08-01T09:48:19;101556.91;;;27.34;45.60
17649;BME280;8943;51.110;-4.158;2022-08-01T09:50:57;101556.72;;;27.42;45.48
17649;BME280;8943;51.110;-4.158;2022-08-01T09:53:41;101555.16;;;27.67;45.76
17649;BME280;8943;51.110;-4.158;2022-08-01T09:56:19;101561.16;;;27.97;45.66
17649;BME280;8943;51.110;-4.158;2022-08-01T09:58:55;101564.78;;;28.24;44.56
17649;BME280;8943;51.110;-4.158;2022-08-01T10:01:28;101575.59;;;28.39;42.88
17649;BME280;8943;51.110;-4.158;2022-08-01T10:04:07;101575.34;;;28.28;42.46
17649;BME280;8943;51.110;-4.158;2022-08-01T10:06:39;101576.81;;;28.23;42.34
17649;BME280;8943;51.110;-4.158;2022-08-01T10:09:10;101588.81;;;28.22;42.16
17649;BME280;8943;51.110;-4.158;2022-08-01T10:11:42;101588.56;;;28.04;40.76
17649;BME280;8943;51.110;-4.158;2022-08-01T10:14:12;101582.81;;;27.79;40.09
17649;BME280;8943;51.110;-4.158;2022-08-01T10:16:45;101575.84;;;27.35;40.09
17649;BME280;8943;51.110;-4.158;2022-08-01T10:19:31;101578.09;;;26.97;41.00
17649;BME280;8943;51.110;-4.158;2022-08-01T10:22:01;101581.72;;;26.69;41.17
17649;BME280;8943;51.110;-4.158;2022-08-01T10:24:29;101576.66;;;26.45;41.67
17649;BME280;8943;51.110;-4.158;2022-08-01T10:27:02;101586.97;;;26.28;41.97
17649;BME280;8943;51.110;-4.158;2022-08-01T10:29:46;101591.53;;;26.21;41.76
17649;BME280;8943;51.110;-4.158;2022-08-01T10:32:35;101574.88;;;26.16;42.35
17649;BME280;8943;51.110;-4.158;2022-08-01T10:35:07;101574.69;;;26.17;41.70
17649;BME280;8943;51.110;-4.158;2022-08-01T10:37:41;101587.88;;;26.14;42.24
17649;BME280;8943;51.110;-4.158;2022-08-01T10:40:19;101585.53;;;26.11;42.41
17649;BME280;8943;51.110;-4.158;2022-08-01T10:42:57;101578.00;;;26.13;42.17
17649;BME280;8943;51.110;-4.158;2022-08-01T10:45:30;101570.84;;;26.12;42.55
17649;BME280;8943;51.110;-4.158;2022-08-01T10:48:04;101574.72;;;26.24;42.87
17649;BME280;8943;51.110;-4.158;2022-08-01T10:50:39;101570.38;;;26.30;42.75
17649;BME280;8943;51.110;-4.158;2022-08-01T10:53:12;101583.19;;;26.29;42.68
17649;BME280;8943;51.110;-4.158;2022-08-01T10:55:50;101582.13;;;26.30;42.94
17649;BME280;8943;51.110;-4.158;2022-08-01T10:58:22;101575.34;;;26.41;42.88
17649;BME280;8943;51.110;-4.158;2022-08-01T11:04:15;101573.09;;;26.30;43.10
17649;BME280;8943;51.110;-4.158;2022-08-01T11:06:54;101576.41;;;26.25;43.55
17649;BME280;8943;51.110;-4.158;2022-08-01T11:09:41;101573.84;;;26.17;43.92
17649;BME280;8943;51.110;-4.158;2022-08-01T11:12:18;101569.78;;;26.13;43.56
17649;BME280;8943;51.110;-4.158;2022-08-01T11:15:22;101573.16;;;25.93;43.95
17649;BME280;8943;51.110;-4.158;2022-08-01T11:18:00;101573.84;;;25.81;45.21
17649;BME280;8943;51.110;-4.158;2022-08-01T11:20:55;101571.88;;;25.60;46.11
17649;BME280;8943;51.110;-4.158;2022-08-01T11:23:49;101571.34;;;25.50;46.85
17649;BME280;8943;51.110;-4.158;2022-08-01T11:26:23;101566.44;;;25.45;47.15
17649;BME280;8943;51.110;-4.158;2022-08-01T11:29:16;101571.84;;;25.38;47.50
17649;BME280;8943;51.110;-4.158;2022-08-01T11:31:48;101566.47;;;25.30;47.46
17649;BME280;8943;51.110;-4.158;2022-08-01T11:34:17;101564.94;;;25.13;47.91
17649;BME280;8943;51.110;-4.158;2022-08-01T11:40:16;101550.06;;;25.01;48.51
17649;BME280;8943;51.110;-4.158;2022-08-01T11:43:17;101557.31;;;25.08;48.30
17649;BME280;8943;51.110;-4.158;2022-08-01T11:45:48;101554.31;;;25.18;48.15
17649;BME280;8943;51.110;-4.158;2022-08-01T11:48:19;101548.78;;;25.26;47.60
17649;BME280;8943;51.110;-4.158;2022-08-01T11:50:58;101541.34;;;25.35;47.62
17649;BME280;8943;51.110;-4.158;2022-08-01T11:53:30;101561.47;;;25.49;46.59
17649;BME280;8943;51.110;-4.158;2022-08-01T11:56:03;101532.97;;;25.36;46.70
17649;BME280;8943;51.110;-4.158;2022-08-01T11:58:33;101545.97;;;25.34;46.78
17649;BME280;8943;51.110;-4.158;2022-08-01T12:01:04;101545.84;;;25.42;46.76
17649;BME280;8943;51.110;-4.158;2022-08-01T12:03:56;101549.44;;;25.43;46.20
17649;BME280;8943;51.110;-4.158;2022-08-01T12:18:15;101531.53;;;25.40;46.19
17649;BME280;8943;51.110;-4.158;2022-08-01T12:20:45;101532.19;;;25.42;46.16
17649;BME280;8943;51.110;-4.158;2022-08-01T12:23:23;101531.44;;;25.49;46.38
17649;BME280;8943;51.110;-4.158;2022-08-01T12:25:54;101533.06;;;25.43;45.78
17649;BME280;8943;51.110;-4.158;2022-08-01T12:28:59;101530.22;;;25.36;46.55
17649;BME280;8943;51.110;-4.158;2022-08-01T12:35:09;101524.13;;;25.34;47.24
17649;BME280;8943;51.110;-4.158;2022-08-01T12:37:44;101537.00;;;25.40;47.51
17649;BME280;8943;51.110;-4.158;2022-08-01T12:40:32;101529.94;;;25.46;47.71
17649;BME280;8943;51.110;-4.158;2022-08-01T12:43:22;101526.38;;;25.46;47.72
17649;BME280;8943;51.110;-4.158;2022-08-01T12:46:03;101520.53;;;25.49;47.42
17649;BME280;8943;51.110;-4.158;2022-08-01T12:48:57;101528.88;;;25.47;46.84
17649;BME280;8943;51.110;-4.158;2022-08-01T12:51:29;101540.94;;;25.53;46.96
17649;BME280;8943;51.110;-4.158;2022-08-01T12:54:01;101532.38;;;25.56;46.26
17649;BME280;8943;51.110;-4.158;2022-08-01T12:56:38;101525.59;;;25.52;45.70
17649;BME280;8943;51.110;-4.158;2022-08-01T12:59:22;101531.19;;;25.43;45.77
17649;BME280;8943;51.110;-4.158;2022-08-01T13:02:10;101530.22;;;25.36;45.77
17649;BME280;8943;51.110;-4.158;2022-08-01T13:04:52;101527.50;;;25.36;46.00
17649;BME280;8943;51.110;-4.158;2022-08-01T13:07:22;101537.38;;;25.37;45.61
17649;BME280;8943;51.110;-4.158;2022-08-01T13:13:46;101533.88;;;25.58;45.24
17649;BME280;8943;51.110;-4.158;2022-08-01T13:16:49;101530.16;;;25.81;45.46
17649;BME280;8943;51.110;-4.158;2022-08-01T13:22:13;101517.16;;;26.47;44.49
17649;BME280;8943;51.110;-4.158;2022-08-01T13:24:50;101513.00;;;26.79;43.99
17649;BME280;8943;51.110;-4.158;2022-08-01T13:28:20;101512.44;;;27.25;42.84
17649;BME280;8943;51.110;-4.158;2022-08-01T13:31:10;101512.56;;;27.65;41.74
17649;BME280;8943;51.110;-4.158;2022-08-01T13:33:55;101511.38;;;27.74;41.51
17649;BME280;8943;51.110;-4.158;2022-08-01T13:36:26;101509.69;;;27.80;41.92
17649;BME280;8943;51.110;-4.158;2022-08-01T13:39:00;101498.38;;;28.03;41.14
17649;BME280;8943;51.110;-4.158;2022-08-01T13:41:50;101495.41;;;28.11;41.95
17649;BME280;8943;51.110;-4.158;2022-08-01T13:44:53;101509.13;;;28.64;40.51
17649;BME280;8943;51.110;-4.158;2022-08-01T13:47:27;101499.41;;;28.94;39.46
17649;BME280;8943;51.110;-4.158;2022-08-01T13:50:32;101488.19;;;29.09;38.66
17649;BME280;8943;51.110;-4.158;2022-08-01T13:56:14;101491.09;;;29.21;38.14